Last 7 Days

Kelseyville

Hourly Data | America/Los_Angeles
as of 5/19/24 6:27 AM PDT
Date & Time Temp (°F) RH (%) Dew Pt (°F) Wet Bulb (°F) Wind Dir (°) Wind Spd (mph) Wind Gust (mph) Leaf Wet (mins) Solar Rad (W/m2) ETo Hr (in) BatVolt (V) Latest Rain (In) Daily Rain (In) Daily Min Temp (°F) Daily Max Temp (°F) Daily Leaf Wet (Hrs) Daily ETo (in)
5/19/24 - 0600 42.6 86 38.8 41.1 SSW | 203 0.4 2.6 0.0 1 0.000 12.7 0.00 0.00 41.6 54.1 0.0 0.000
5/19/24 - 0500 43.8 85 39.6 42.1 SSE | 166 0.4 2.6 0.0 0 0.000 12.7 0.00 0.00 43.1 54.1 0.0 0.000
5/19/24 - 0400 45.2 81 39.7 42.9 ESE | 117 0.4 2.0 0.0 0 0.000 12.7 0.00 0.00 43.8 54.1 0.0 0.000
5/19/24 - 0300 49.3 73 41.1 45.6 S | 180 1.3 4.8 0.0 0 0.000 12.8 0.00 0.00 46.7 54.1 0.0 0.000
5/19/24 - 0200 52.5 69 42.7 47.9 S | 174 2.1 4.4 0.0 0 0.000 12.8 0.00 0.00 50.1 54.1 0.0 0.000
5/19/24 - 0100 53.8 67 43.2 48.7 SSE | 163 1.6 4.4 0.0 0 0.000 12.8 0.00 0.00 49.9 84.2 0.0 0.239
5/19/24 - 0000 57.0 62 44.2 50.6 S | 178 3.3 8.1 0.0 0 0.000 12.8 0.00 0.00 49.9 84.2 0.0 0.239
5/18/24 - 2300 59.1 57 43.7 51.2 S | 180 3.2 7.0 0.0 0 0.000 12.8 0.00 0.00 49.9 84.2 0.0 0.239
5/18/24 - 2200 61.6 52 43.9 52.2 S | 169 2.3 6.1 0.0 0 0.000 12.8 0.00 0.00 49.9 84.2 0.0 0.239
5/18/24 - 2100 66.2 46 44.9 54.3 S | 190 4.3 9.2 0.0 7 0.001 12.8 0.00 0.00 49.9 84.2 0.0 0.239
5/18/24 - 2000 72.6 39 45.9 56.8 SW | 224 5.4 12.7 0.0 109 0.004 13.0 0.00 0.00 49.9 84.2 0.0 0.238
5/18/24 - 1900 76.4 37 48.4 59.0 WSW | 239 6.5 15.6 0.0 295 0.010 13.2 0.00 0.00 49.9 84.2 0.0 0.233
5/18/24 - 1800 79.0 37 50.5 60.7 WSW | 240 7.7 18.2 0.0 489 0.017 13.6 0.00 0.00 49.9 84.2 0.0 0.223
5/18/24 - 1700 80.9 38 53.0 62.5 WSW | 252 8.7 18.0 0.0 667 0.022 13.9 0.00 0.00 49.9 84.2 0.0 0.206
5/18/24 - 1600 81.8 41 55.7 64.2 WSW | 248 9.0 18.0 0.0 823 0.026 13.2 0.00 0.00 49.9 84.2 0.0 0.184
5/18/24 - 1500 83.1 40 56.4 64.8 W | 261 8.1 16.0 0.0 927 0.029 13.0 0.00 0.00 49.9 84.2 0.0 0.158
5/18/24 - 1400 83.4 41 57.5 65.6 W | 261 6.1 14.5 0.0 977 0.030 13.0 0.00 0.00 49.9 84.2 0.0 0.129
5/18/24 - 1300 80.5 45 57.3 65.0 NNE | 22 4.5 9.9 0.0 965 0.028 12.9 0.00 0.00 49.9 82.7 0.0 0.100
5/18/24 - 1200 76.3 50 56.4 63.6 N | 358 3.9 8.6 0.0 892 0.024 13.1 0.00 0.00 49.9 79.0 0.0 0.072
5/18/24 - 1100 72.7 56 56.2 62.7 NNE | 15 3.9 8.6 0.0 769 0.020 13.1 0.00 0.00 49.9 74.3 0.0 0.048
5/18/24 - 1000 69.5 65 57.2 62.6 NNE | 13 2.8 7.0 0.0 607 0.015 13.5 0.00 0.00 49.9 71.2 0.0 0.028
5/18/24 - 0900 65.8 71 56.0 60.7 SW | 233 0.8 3.5 0.0 420 0.009 13.7 0.00 0.00 49.9 68.3 0.0 0.013
5/18/24 - 0800 58.6 84 53.9 56.9 SSW | 206 0.8 2.6 0.0 232 0.004 13.0 0.00 0.00 49.9 62.5 0.0 0.004
5/18/24 - 0700 52.4 95 51.1 52.4 S | 169 1.0 2.8 0.0 64 0.000 12.8 0.00 0.00 49.9 57.6 0.0 0.000
5/18/24 - 0600 50.5 93 48.5 50.2 W | 261 0.3 2.0 0.0 1 0.000 12.7 0.00 0.00 49.9 57.6 0.0 0.000
5/18/24 - 0500 51.8 93 49.8 51.5 SSW | 196 0.4 1.5 0.0 0 0.000 12.7 0.00 0.00 49.9 57.6 0.0 0.000
5/18/24 - 0400 53.1 92 50.8 52.7 SSW | 194 0.6 2.0 0.0 0 0.000 12.7 0.00 0.00 52.0 57.6 0.0 0.000
5/18/24 - 0300 54.7 89 51.7 54.0 SSW | 200 0.0 0.9 0.0 0 0.000 12.8 0.00 0.00 53.8 57.6 0.0 0.000
5/18/24 - 0200 56.4 87 52.7 55.3 SSW | 208 0.5 2.2 0.0 0 0.000 12.8 0.00 0.00 55.3 57.6 0.0 0.000
5/18/24 - 0100 58.7 84 54.0 57.0 SSW | 196 0.4 2.2 0.0 0 0.000 12.8 0.00 0.00 47.6 87.2 4.9 0.229
5/18/24 - 0000 61.2 81 55.2 58.7 SW | 217 0.8 3.3 0.0 0 0.000 12.8 0.00 0.00 47.6 87.2 4.9 0.229
5/17/24 - 2300 64.5 74 55.9 60.2 S | 175 1.5 3.9 0.0 0 0.000 12.8 0.00 0.00 47.6 87.2 4.9 0.229
5/17/24 - 2200 67.3 69 57.0 61.8 S | 179 2.3 5.0 0.0 0 0.000 12.8 0.00 0.00 47.6 87.2 4.9 0.229
5/17/24 - 2100 71.2 65 58.8 64.1 S | 188 2.9 5.3 0.0 5 0.000 12.8 0.00 0.00 47.6 87.2 4.9 0.229
5/17/24 - 2000 78.1 53 59.4 65.9 SW | 218 2.7 6.1 0.0 91 0.002 12.9 0.00 0.00 47.6 87.2 4.9 0.228
5/17/24 - 1900 82.2 45 58.5 66.0 WSW | 237 4.9 10.5 0.0 268 0.009 13.2 0.00 0.00 47.6 87.2 4.9 0.226
5/17/24 - 1800 84.7 40 57.5 65.7 W | 266 5.7 10.5 0.0 470 0.016 13.6 0.00 0.00 47.6 87.2 4.9 0.217
5/17/24 - 1700 86.1 37 57.0 65.6 WNW | 290 4.9 10.1 0.0 657 0.021 13.9 0.00 0.00 47.6 87.2 4.9 0.202
5/17/24 - 1600 85.0 35 54.2 63.8 NNE | 12 5.2 9.9 0.0 812 0.025 13.6 0.00 0.00 47.6 85.9 4.9 0.181
5/17/24 - 1500 84.2 37 55.1 64.2 N | 3 5.3 11.2 0.0 920 0.028 13.1 0.00 0.00 47.6 85.4 4.9 0.155
5/17/24 - 1400 83.0 39 55.2 64.1 NNE | 20 5.1 10.1 0.0 973 0.029 12.9 0.00 0.00 47.6 84.2 4.9 0.127
5/17/24 - 1300 78.7 51 58.9 65.7 NNE | 27 5.4 10.5 0.0 962 0.027 13.1 0.00 0.00 47.6 81.9 4.9 0.098
5/17/24 - 1200 74.4 54 56.6 63.3 N | 3 4.1 9.0 0.0 893 0.024 13.1 0.00 0.00 47.6 77.1 4.9 0.071
5/17/24 - 1100 70.2 60 55.9 61.8 N | 356 3.9 9.6 0.0 779 0.020 13.4 0.00 0.00 47.6 72.3 4.9 0.047
5/17/24 - 1000 67.2 68 56.5 61.5 NNE | 19 3.0 7.0 0.0 619 0.015 13.4 0.00 0.00 47.6 69.1 4.9 0.028
5/17/24 - 0900 63.2 75 55.3 59.4 ENE | 65 1.2 5.9 0.0 429 0.009 13.7 0.00 0.00 47.6 65.6 4.9 0.013
5/17/24 - 0800 56.2 88 52.7 55.2 S | 186 2.0 4.8 28.6 243 0.004 13.0 0.00 0.00 47.6 60.0 4.9 0.004
5/17/24 - 0700 49.0 96 47.8 49.0 SSE | 158 0.5 2.4 60.0 50 0.000 12.8 0.00 0.00 47.6 54.8 4.4 0.000
5/17/24 - 0600 49.2 93 47.4 48.9 SW | 216 0.7 2.2 60.0 1 0.000 12.7 0.00 0.00 47.6 54.8 3.4 0.000
5/17/24 - 0500 50.4 94 48.8 50.3 SSW | 195 1.1 3.3 60.0 0 0.000 12.7 0.00 0.00 49.7 54.8 2.4 0.000
5/17/24 - 0400 50.6 94 49.0 50.5 S | 179 1.2 3.7 60.0 0 0.000 12.8 0.00 0.00 49.7 54.8 1.4 0.000
5/17/24 - 0300 51.5 93 49.5 51.2 SW | 214 0.3 2.0 23.6 0 0.000 12.8 0.00 0.00 50.5 54.8 0.4 0.000
5/17/24 - 0200 53.7 90 50.9 53.0 S | 191 0.7 3.5 0.0 0 0.000 12.8 0.00 0.00 52.7 54.8 0.0 0.000
5/17/24 - 0100 55.1 88 51.8 54.2 SSE | 166 0.4 3.1 0.0 0 0.000 12.8 0.00 0.00 48.6 85.8 0.0 0.240
5/17/24 - 0000 58.3 82 53.0 56.2 S | 177 0.8 3.7 0.0 0 0.000 12.8 0.00 0.00 48.6 85.8 0.0 0.240
5/16/24 - 2300 60.7 78 53.8 57.6 S | 178 2.3 4.4 0.0 0 0.000 12.8 0.00 0.00 48.6 85.8 0.0 0.240
5/16/24 - 2200 62.9 75 54.8 59.0 S | 182 2.3 4.8 1.0 0 0.000 12.8 0.00 0.00 48.6 85.8 0.0 0.240
5/16/24 - 2100 67.1 67 56.0 61.1 S | 185 3.3 5.9 0.0 5 0.000 12.9 0.00 0.00 48.6 85.8 0.0 0.240
5/16/24 - 2000 73.6 56 57.1 63.5 SSW | 212 3.9 8.1 0.0 97 0.003 12.9 0.00 0.00 48.6 85.8 0.0 0.240
5/16/24 - 1900 77.8 50 57.8 64.8 SW | 222 6.5 12.5 0.0 281 0.009 13.2 0.00 0.00 48.6 85.8 0.0 0.237
5/16/24 - 1800 81.7 45 58.3 65.8 SW | 225 6.6 12.7 0.0 480 0.016 13.6 0.00 0.00 48.6 85.8 0.0 0.228
5/16/24 - 1700 83.8 41 57.6 65.7 WSW | 246 6.0 11.0 0.0 666 0.021 13.9 0.00 0.00 48.6 85.8 0.0 0.212
5/16/24 - 1600 84.5 38 56.4 65.0 W | 260 6.4 12.1 0.0 820 0.026 13.1 0.00 0.00 48.6 85.8 0.0 0.191
5/16/24 - 1500 84.4 38 56.1 64.9 SW | 218 6.6 12.9 0.0 931 0.029 13.7 0.00 0.00 48.6 85.8 0.0 0.165
5/16/24 - 1400 83.9 37 55.2 64.2 WNW | 301 4.6 12.9 0.0 987 0.030 13.6 0.00 0.00 48.6 85.8 0.0 0.136
5/16/24 - 1300 82.0 36 52.7 62.5 NE | 40 4.7 9.2 0.0 982 0.029 13.0 0.00 0.00 48.6 83.7 0.0 0.106
5/16/24 - 1200 79.0 38 51.4 61.2 NE | 48 5.1 10.1 0.0 913 0.026 13.1 0.00 0.00 48.6 81.0 0.0 0.077
5/16/24 - 1100 76.0 43 52.0 60.9 NE | 46 3.4 8.8 0.0 790 0.022 13.1 0.00 0.00 48.6 77.8 0.0 0.051
5/16/24 - 1000 71.1 53 53.0 60.3 N | 9 3.0 6.4 0.0 626 0.016 14.2 0.00 0.00 48.6 73.0 0.0 0.029
5/16/24 - 0900 67.2 56 50.7 57.8 N | 357 1.2 4.4 0.0 435 0.010 13.7 0.00 0.00 48.6 69.7 0.0 0.013
5/16/24 - 0800 59.3 69 49.1 54.1 W | 263 0.3 1.8 0.0 233 0.004 12.9 0.00 0.00 48.6 63.6 0.0 0.004
5/16/24 - 0700 51.0 85 46.7 49.4 SW | 216 0.5 2.4 0.0 61 0.000 12.7 0.00 0.00 48.6 57.8 0.0 0.000
5/16/24 - 0600 49.2 88 45.8 48.0 S | 189 1.0 3.3 0.0 1 0.000 12.6 0.00 0.00 48.6 57.8 0.0 0.000
5/16/24 - 0500 50.4 86 46.4 48.9 SSW | 212 0.9 2.4 0.0 0 0.000 12.7 0.00 0.00 49.7 57.8 0.0 0.000
5/16/24 - 0400 51.6 84 46.9 49.7 SSW | 204 0.6 2.4 0.0 0 0.000 12.7 0.00 0.00 50.7 57.8 0.0 0.000
5/16/24 - 0300 53.4 81 47.6 50.9 SSW | 198 0.8 2.2 0.0 0 0.000 12.7 0.00 0.00 52.8 57.8 0.0 0.000
5/16/24 - 0200 55.6 76 48.2 52.2 SSW | 208 0.9 2.4 0.0 0 0.000 12.7 0.00 0.00 53.4 57.8 0.0 0.000
5/16/24 - 0100 59.2 67 48.1 53.6 SSW | 197 0.9 3.3 0.0 0 0.000 12.8 0.00 0.00 47.7 92.7 0.0 0.255
5/16/24 - 0000 63.6 58 48.6 55.4 S | 190 1.5 3.9 0.0 0 0.000 12.8 0.00 0.00 47.7 92.7 0.0 0.255
5/15/24 - 2300 66.9 52 48.7 56.6 S | 172 2.5 4.6 0.0 0 0.000 12.8 0.00 0.00 47.7 92.7 0.0 0.255
5/15/24 - 2200 69.3 48 48.5 57.2 SSE | 166 2.5 4.4 0.0 0 0.000 12.8 0.00 0.00 47.7 92.7 0.0 0.255
5/15/24 - 2100 74.0 42 49.3 58.9 S | 186 3.1 8.1 0.0 5 0.001 12.8 0.00 0.00 47.7 92.7 0.0 0.254
5/15/24 - 2000 81.4 32 48.5 60.2 WSW | 237 4.2 9.0 0.0 97 0.004 12.9 0.00 0.00 47.7 92.7 0.0 0.253
5/15/24 - 1900 85.2 28 48.5 60.9 WSW | 254 5.1 12.1 0.0 281 0.010 13.2 0.00 0.00 47.7 92.7 0.0 0.249
5/15/24 - 1800 87.8 30 52.4 63.3 WSW | 256 8.0 16.2 0.0 478 0.019 13.6 0.00 0.00 47.7 92.7 0.0 0.239
5/15/24 - 1700 90.2 31 55.2 65.0 WSW | 252 8.6 17.3 0.0 657 0.025 13.9 0.00 0.00 47.7 92.7 0.0 0.220
5/15/24 - 1600 91.9 28 54.5 64.9 W | 259 6.4 15.3 0.0 811 0.028 13.7 0.00 0.00 47.7 92.7 0.0 0.196
5/15/24 - 1500 90.7 27 51.8 63.4 NW | 322 4.9 12.1 0.0 925 0.030 13.0 0.00 0.00 47.7 92.4 0.0 0.168
5/15/24 - 1400 88.5 27 50.7 62.5 NNE | 14 4.3 9.2 0.0 986 0.031 13.5 0.00 0.00 47.7 90.5 0.0 0.137
5/15/24 - 1300 84.9 30 49.6 61.4 NNE | 33 5.7 9.2 0.0 980 0.031 13.1 0.00 0.00 47.7 87.3 0.0 0.106
5/15/24 - 1200 79.5 39 52.5 61.9 N | 7 3.9 8.3 0.0 910 0.026 13.0 0.00 0.00 47.7 82.4 0.0 0.076
5/15/24 - 1100 76.0 47 54.1 62.1 N | 349 2.9 6.6 0.0 788 0.021 13.0 0.00 0.00 47.7 77.5 0.0 0.050
5/15/24 - 1000 72.2 51 53.0 60.5 N | 357 1.6 4.6 0.0 625 0.016 14.3 0.00 0.00 47.7 74.2 0.0 0.028
5/15/24 - 0900 66.2 57 50.4 57.3 WNW | 290 0.6 3.1 0.0 431 0.009 13.7 0.00 0.00 47.7 69.9 0.0 0.013
5/15/24 - 0800 58.1 73 49.4 53.9 SW | 215 0.5 2.6 0.0 229 0.004 12.9 0.00 0.00 47.7 62.4 0.0 0.004
5/15/24 - 0700 49.3 90 46.6 48.5 SSE | 164 0.3 2.2 0.0 63 0.000 12.7 0.00 0.00 47.7 55.5 0.0 0.000
5/15/24 - 0600 48.6 90 45.9 47.8 SSW | 213 0.5 2.2 0.0 1 0.000 12.7 0.00 0.00 47.7 55.5 0.0 0.000
5/15/24 - 0500 49.8 87 46.0 48.4 SSW | 193 0.6 3.1 0.0 0 0.000 12.7 0.00 0.00 48.8 55.5 0.0 0.000
5/15/24 - 0400 51.0 89 47.8 50.0 S | 186 0.9 2.6 0.0 0 0.000 12.7 0.00 0.00 50.3 55.5 0.0 0.000
5/15/24 - 0300 52.7 86 48.6 51.2 SSW | 198 0.8 2.6 0.0 0 0.000 12.7 0.00 0.00 51.3 55.5 0.0 0.000
5/15/24 - 0200 54.4 84 49.8 52.6 S | 184 0.4 2.6 0.0 0 0.000 12.8 0.00 0.00 53.1 55.5 0.0 0.000
5/15/24 - 0100 57.7 83 52.5 55.7 W | 262 0.4 2.0 0.0 0 0.000 12.8 0.00 0.00 45.3 89.2 0.0 0.237
5/15/24 - 0000 62.3 75 54.2 58.4 SW | 222 2.1 6.1 0.0 0 0.000 12.8 0.00 0.00 45.3 89.2 0.0 0.237
5/14/24 - 2300 64.9 72 55.6 60.2 S | 185 2.9 5.5 0.0 0 0.000 12.8 0.00 0.00 45.3 89.2 0.0 0.237
5/14/24 - 2200 67.4 69 56.9 61.8 S | 183 1.9 3.9 0.0 1 0.000 12.8 0.00 0.00 45.3 89.2 0.0 0.237
5/14/24 - 2100 74.5 53 56.4 63.2 SW | 232 2.2 6.1 0.0 5 0.000 12.8 0.00 0.00 45.3 89.2 0.0 0.237
5/14/24 - 2000 80.9 45 57.5 65.1 W | 264 4.3 9.6 0.0 92 0.003 12.9 0.00 0.00 45.3 89.2 0.0 0.237
5/14/24 - 1900 84.6 41 58.3 66.2 W | 260 5.4 11.6 0.0 274 0.010 13.2 0.00 0.00 45.3 89.2 0.0 0.233
5/14/24 - 1800 87.1 35 56.2 65.3 WSW | 246 6.1 12.7 0.0 481 0.017 13.6 0.00 0.00 45.3 89.2 0.0 0.223
5/14/24 - 1700 87.9 31 53.2 63.7 WSW | 253 5.7 12.9 0.0 662 0.022 13.9 0.00 0.00 45.3 89.2 0.0 0.206
5/14/24 - 1600 88.2 27 50.3 62.3 WNW | 291 5.2 13.8 0.0 819 0.027 13.3 0.00 0.00 45.3 89.2 0.0 0.184
5/14/24 - 1500 87.3 24 45.8 60.2 N | 6 3.7 10.3 0.0 934 0.029 12.8 0.00 0.00 45.3 89.2 0.0 0.157
5/14/24 - 1400 83.9 34 52.8 62.9 NNE | 14 4.3 8.1 0.0 983 0.030 12.8 0.00 0.00 45.3 86.4 0.0 0.128
5/14/24 - 1300 79.4 42 54.3 62.9 N | 11 3.8 7.9 0.0 971 0.028 12.9 0.00 0.00 45.3 81.6 0.0 0.099
5/14/24 - 1200 75.4 46 53.2 61.4 N | 3 3.4 7.7 0.0 895 0.024 13.0 0.00 0.00 45.3 77.7 0.0 0.071
5/14/24 - 1100 71.2 53 53.5 60.6 N | 2 4.1 9.2 0.0 772 0.020 13.2 0.00 0.00 45.3 72.9 0.0 0.047
5/14/24 - 1000 67.8 60 53.2 59.5 N | 4 1.8 4.8 0.0 626 0.015 13.4 0.00 0.00 45.3 70.5 0.0 0.027
5/14/24 - 0900 62.4 67 51.1 56.4 SW | 216 0.7 3.1 0.0 426 0.009 13.8 0.00 0.00 45.3 66.3 0.0 0.012
5/14/24 - 0800 54.7 79 48.4 51.9 SSW | 196 1.0 2.6 0.0 231 0.003 13.0 0.00 0.00 45.3 59.0 0.0 0.003
5/14/24 - 0700 47.3 90 44.5 46.4 SSW | 212 0.1 1.8 0.0 67 0.000 12.7 0.00 0.00 45.3 54.0 0.0 0.000
5/14/24 - 0600 47.3 91 44.8 46.5 SSW | 203 0.6 2.2 0.0 1 0.000 12.7 0.00 0.00 45.6 54.0 0.0 0.000
5/14/24 - 0500 48.5 92 46.3 48.0 S | 179 1.2 3.9 0.0 0 0.000 12.7 0.00 0.00 48.1 54.0 0.0 0.000
5/14/24 - 0400 49.6 88 46.3 48.5 NW | 304 0.1 1.3 0.0 0 0.000 12.7 0.00 0.00 48.3 54.0 0.0 0.000
5/14/24 - 0300 51.6 87 47.8 50.3 S | 182 1.1 3.3 0.0 0 0.000 12.8 0.00 0.00 50.7 54.0 0.0 0.000
5/14/24 - 0200 52.7 88 49.3 51.6 S | 186 0.6 2.6 0.0 0 0.000 12.8 0.00 0.00 52.0 54.0 0.0 0.000
5/14/24 - 0100 55.7 82 50.3 53.5 SSW | 204 0.6 3.1 0.0 0 0.000 12.8 0.00 0.00 40.4 87.0 0.0 0.247
5/14/24 - 0000 58.8 77 51.4 55.4 SSW | 208 0.8 2.8 0.0 0 0.000 12.8 0.00 0.00 40.4 87.0 0.0 0.247
5/13/24 - 2300 62.5 72 53.4 58.0 S | 183 2.7 5.7 0.0 0 0.000 12.8 0.00 0.00 40.4 87.0 0.0 0.247
5/13/24 - 2200 65.6 65 53.5 59.0 S | 182 2.6 5.3 0.0 0 0.000 12.8 0.00 0.00 40.4 87.0 0.0 0.247
5/13/24 - 2100 70.6 57 54.5 61.1 SSW | 192 3.3 7.5 0.0 4 0.001 12.9 0.00 0.00 40.4 87.0 0.0 0.247
5/13/24 - 2000 76.8 46 54.4 62.4 SW | 214 4.4 10.1 0.0 92 0.003 13.0 0.00 0.00 40.4 87.0 0.0 0.247
5/13/24 - 1900 81.4 31 47.8 59.9 WSW | 249 5.6 12.1 0.0 283 0.010 13.2 0.00 0.00 40.4 87.0 0.0 0.244
5/13/24 - 1800 84.1 27 46.8 59.9 W | 259 6.2 12.3 0.0 492 0.017 13.7 0.00 0.00 40.4 87.0 0.0 0.233
5/13/24 - 1700 85.0 25 44.9 59.4 WSW | 241 4.5 12.1 0.0 679 0.021 13.9 0.00 0.00 40.4 87.0 0.0 0.216
5/13/24 - 1600 85.6 17 35.3 55.9 NNE | 14 4.9 14.5 0.0 843 0.027 13.2 0.00 0.00 40.4 87.0 0.0 0.195
5/13/24 - 1500 85.5 20 39.5 57.3 NE | 38 8.0 14.5 0.0 950 0.032 13.1 0.00 0.00 40.4 86.8 0.0 0.168
5/13/24 - 1400 84.5 22 41.4 57.7 ENE | 63 8.7 18.0 0.0 1,007 0.033 13.2 0.00 0.00 40.4 86.1 0.0 0.136
5/13/24 - 1300 79.8 32 47.0 59.2 NE | 37 5.9 13.2 0.0 1,004 0.030 13.2 0.00 0.00 40.4 83.5 0.0 0.103
5/13/24 - 1200 72.8 39 46.3 57.0 N | 3 3.6 7.5 0.0 935 0.025 13.1 0.00 0.00 40.4 76.0 0.0 0.073
5/13/24 - 1100 69.9 43 46.1 56.1 N | 0 3.7 8.1 0.0 809 0.021 13.2 0.00 0.00 40.4 71.6 0.0 0.048
5/13/24 - 1000 65.4 50 46.3 54.8 N | 350 2.0 6.1 0.0 639 0.015 13.3 0.00 0.00 40.4 68.3 0.0 0.027
5/13/24 - 0900 60.4 55 43.9 51.7 SSE | 152 1.1 3.9 0.0 441 0.009 13.8 0.00 0.00 40.4 63.6 0.0 0.012
5/13/24 - 0800 51.5 69 41.5 46.8 SSW | 199 1.5 4.8 0.0 234 0.003 12.9 0.00 0.00 40.4 55.6 0.0 0.003
5/13/24 - 0700 43.2 87 39.6 41.8 S | 190 0.6 2.6 0.0 59 0.000 12.7 0.00 0.00 40.4 49.3 0.0 0.000
5/13/24 - 0600 42.4 87 38.7 41.0 SSW | 200 0.5 2.6 0.0 1 0.000 12.7 0.00 0.00 40.4 49.3 0.0 0.000
5/13/24 - 0500 43.5 87 39.8 42.0 SSW | 200 0.8 3.3 0.0 0 0.000 12.7 0.00 0.00 42.9 49.3 0.0 0.000
5/13/24 - 0400 45.6 82 40.6 43.5 SW | 231 0.7 2.4 0.0 0 0.000 12.7 0.00 0.00 43.8 49.3 0.0 0.000
5/13/24 - 0300 47.4 78 40.8 44.5 S | 188 0.7 3.1 0.0 0 0.000 12.8 0.00 0.00 46.4 49.3 0.0 0.000
5/13/24 - 0200 48.2 78 41.6 45.3 SSW | 199 1.0 2.4 0.0 0 0.000 12.8 0.00 0.00 47.3 49.3 0.0 0.000
5/13/24 - 0100 50.8 71 41.7 46.6 SW | 235 0.4 2.6 0.0 0 0.000 12.8 0.00 0.00 43.8 87.3 0.0 0.250
5/13/24 - 0000 54.2 64 42.1 48.4 SSW | 211 0.3 2.4 0.0 0 0.000 12.8 0.00 0.00 43.8 87.3 0.0 0.250
5/12/24 - 2300 58.4 57 43.3 50.7 S | 176 1.7 3.7 0.0 0 0.000 12.8 0.00 0.00 43.8 87.3 0.0 0.250
5/12/24 - 2200 61.2 53 44.0 52.1 S | 173 2.2 4.4 0.0 0 0.000 12.8 0.00 0.00 43.8 87.3 0.0 0.250
5/12/24 - 2100 68.6 36 39.8 52.8 SW | 222 2.4 7.0 0.0 4 0.000 12.8 0.00 0.00 43.8 87.3 0.0 0.250
5/12/24 - 2000 75.4 27 39.4 54.7 WNW | 284 5.7 13.6 0.0 94 0.005 12.9 0.00 0.00 43.8 87.3 0.0 0.249
5/12/24 - 1900 80.2 26 41.9 56.9 WNW | 297 6.0 12.1 0.0 283 0.011 13.2 0.00 0.00 43.8 87.3 0.0 0.244
5/12/24 - 1800 83.2 25 43.7 58.4 WNW | 286 6.6 12.7 0.0 487 0.017 13.7 0.00 0.00 43.8 87.3 0.0 0.233
5/12/24 - 1700 84.5 25 45.1 59.2 WSW | 242 7.5 15.1 0.0 674 0.023 14.0 0.00 0.00 43.8 87.3 0.0 0.216
5/12/24 - 1600 85.6 24 44.9 59.4 WSW | 243 7.4 14.0 0.0 830 0.028 13.4 0.00 0.00 43.8 87.3 0.0 0.193
5/12/24 - 1500 85.4 24 45.0 59.4 WNW | 301 6.5 16.9 0.0 942 0.030 13.2 0.00 0.00 43.8 87.3 0.0 0.165
5/12/24 - 1400 83.3 28 46.9 59.8 N | 359 6.2 11.2 0.0 989 0.031 13.0 0.00 0.00 43.8 84.5 0.0 0.134
5/12/24 - 1300 81.3 34 50.1 60.9 NNE | 13 5.1 9.4 0.0 981 0.029 12.9 0.00 0.00 43.8 82.9 0.0 0.104
5/12/24 - 1200 78.4 38 50.4 60.5 N | 11 3.5 7.2 0.0 915 0.026 12.9 0.00 0.00 43.8 80.8 0.0 0.075
5/12/24 - 1100 75.6 41 50.3 59.8 NE | 41 2.8 7.5 0.0 795 0.021 13.4 0.00 0.00 43.8 77.6 0.0 0.049
5/12/24 - 1000 69.9 46 47.9 57.0 N | 3 1.1 4.2 0.0 629 0.015 13.7 0.00 0.00 43.8 73.2 0.0 0.027
5/12/24 - 0900 63.4 54 46.7 54.3 W | 270 0.7 3.1 0.0 433 0.009 13.8 0.00 0.00 43.8 66.8 0.0 0.012
5/12/24 - 0800 55.1 66 44.0 49.7 SW | 227 0.1 1.3 0.0 229 0.003 12.9 0.00 0.00 43.8 59.8 0.0 0.003
5/12/24 - 0700 46.6 84 42.1 44.7 SSW | 205 0.7 2.6 0.0 57 0.000 12.7 0.00 0.00 43.8 51.6 0.0 0.000
Max 91.9 96 59.4 66.2 - 9.0 18.2 60.0 1,007 0.033 14.3 0.00 0.00 55.3 92.7 4.9 0.255
Avg 67.3 59 49.8 56.6 - 3.0 7.0 1.7 346 0.010 13.1 0.00 - - - - -
Min 42.4 17 35.3 41.0 - 0.0 0.9 0.0 0 0.000 12.6 0.00 0.00 40.4 49.3 0.0 0.000
Total - - - - - - - - - 1.696 - 0.00 - - - - -